Time;durP1;ratioP1;P1;durP2;ratioP2;P2;SDS_P1;SDS_P2;PMS_P1;PMS_P2;Temp;Humidity;BMP_temperature;BMP_pressure;BME280_temperature;BME280_humidity;BME280_pressure;Samples;Min_cycle;Max_cycle;Signal;HPM_P1;HPM_P2
2022/02/28 07:23:58;;;;;;;69.78;45.17;;;102.90;2227.20;;;;;;4958983;29;20422;-82
2022/02/28 08:29:25;;;;;;;32.25;23.58;;;128.60;2252.80;;;;;;4958086;28;20509;-82
2022/02/28 08:35:39;;;;;;;47.13;30.70;;;128.70;2252.80;;;;;;4958012;29;20022;-82
2022/02/28 08:38:11;;;;;;;59.13;42.67;;;128.80;2252.80;;;;;;4863530;29;20048;-83
2022/02/28 08:40:38;;;;;;;32.08;24.30;;;128.70;2252.80;;;;;;4934066;29;20073;-81
2022/02/28 08:43:03;;;;;;;57.00;44.03;;;128.90;2252.80;;;;;;4940368;29;20023;-81
2022/02/28 08:45:39;;;;;;;66.65;52.95;;;128.90;2252.80;;;;;;4940681;29;20020;-81
2022/02/28 08:51:05;;;;;;;39.88;29.75;;;153.70;2252.80;;;;;;4898376;29;20436;-84
2022/02/28 08:53:59;;;;;;;27.30;22.65;;;153.80;2252.80;;;;;;4954838;29;20063;-82
2022/02/28 08:56:47;;;;;;;26.77;17.98;;;153.80;2252.80;;;;;;4940392;29;20031;-82
2022/02/28 08:59:49;;;;;;;58.55;33.40;;;153.60;2252.80;;;;;;4917070;29;20402;-83
2022/02/28 09:15:57;;;;;;;24.67;15.65;;;153.80;2252.80;;;;;;4767900;30;20051;-83
2022/02/28 09:18:26;;;;;;;31.10;21.77;;;153.80;2252.80;;;;;;4755155;30;20087;-82
2022/02/28 09:20:52;;;;;;;56.60;35.45;;;153.70;2252.80;;;;;;4772472;29;20034;-81
2022/02/28 09:23:39;;;;;;;47.13;33.10;;;153.70;2252.80;;;;;;4880261;29;20084;-81
2022/02/28 09:26:05;;;;;;;26.83;19.30;;;153.80;2252.80;;;;;;4900751;29;20110;-79
2022/02/28 09:28:31;;;;;;;22.23;12.98;;;154.00;2252.80;;;;;;4900445;29;20126;-80
2022/02/28 09:30:57;;;;;;;15.82;10.55;;;154.30;2252.80;;;;;;4931115;29;20047;-78
2022/02/28 09:33:23;;;;;;;18.60;13.50;;;154.10;2252.80;;;;;;4939367;29;20035;-79
2022/02/28 09:35:51;;;;;;;32.63;21.08;;;154.10;2252.80;;;;;;4956979;29;20023;-80
2022/02/28 09:38:17;;;;;;;25.02;18.80;;;154.20;2252.80;;;;;;4939511;29;20457;-78
2022/02/28 09:40:46;;;;;;;19.70;14.07;;;154.30;2252.80;;;;;;4938760;29;20039;-79
2022/02/28 09:43:12;;;;;;;25.60;16.73;;;154.30;2252.80;;;;;;4938471;29;20106;-80
2022/02/28 09:45:39;;;;;;;27.55;13.95;;;154.10;2252.80;;;;;;4938279;29;20030;-80
2022/02/28 09:48:11;;;;;;;20.17;12.40;;;154.20;2252.80;;;;;;4939312;29;20024;-78
2022/02/28 09:50:36;;;;;;;13.40;11.27;;;154.20;2252.80;;;;;;4938957;29;20019;-81
2022/02/28 09:53:05;;;;;;;18.55;13.13;;;154.20;2252.80;;;;;;4937898;29;20114;-82
2022/02/28 09:55:31;;;;;;;19.08;14.30;;;154.30;2252.80;;;;;;4938870;29;20027;-76
2022/02/28 09:57:57;;;;;;;19.50;14.25;;;154.20;2252.80;;;;;;4938501;29;20038;-77
2022/02/28 10:00:24;;;;;;;23.30;15.48;;;154.20;2252.80;;;;;;4942927;29;20019;-76
2022/02/28 10:02:56;;;;;;;27.95;17.70;;;154.10;2252.80;;;;;;4955179;29;20079;-80
2022/02/28 10:05:23;;;;;;;23.73;16.95;;;154.10;2252.80;;;;;;4954687;29;20479;-78
2022/02/28 10:07:52;;;;;;;24.38;15.90;;;154.10;2252.80;;;;;;4954942;29;20457;-77
2022/02/28 10:10:19;;;;;;;28.60;20.20;;;154.20;2252.80;;;;;;4954594;29;20074;-78
2022/02/28 10:12:46;;;;;;;23.38;14.93;;;154.20;2252.80;;;;;;4954575;29;20023;-76
2022/02/28 10:15:20;;;;;;;28.40;16.15;;;154.00;2252.80;;;;;;4954579;29;20078;-77
2022/02/28 10:17:50;;;;;;;21.20;14.38;;;154.00;2252.80;;;;;;4954361;29;20389;-77
2022/02/28 10:20:23;;;;;;;35.45;21.30;;;154.00;2252.80;;;;;;4954314;29;20032;-81
2022/02/28 10:23:01;;;;;;;28.90;17.90;;;154.10;2252.80;;;;;;4955590;29;20027;-78
2022/02/28 10:25:36;;;;;;;25.40;15.85;;;154.10;2252.80;;;;;;4948577;29;20084;-80
2022/02/28 10:28:15;;;;;;;25.75;17.30;;;154.20;2252.80;;;;;;4959500;28;20159;-81
2022/02/28 10:30:51;;;;;;;35.00;21.33;;;154.20;2252.80;;;;;;4942126;29;20043;-80
2022/02/28 10:33:17;;;;;;;28.00;17.55;;;154.20;2252.80;;;;;;4950947;29;20031;-77
2022/02/28 10:36:00;;;;;;;46.42;26.25;;;154.20;2252.80;;;;;;4938495;29;20416;-78
2022/02/28 10:38:37;;;;;;;32.72;19.83;;;154.40;2252.80;;;;;;4938101;29;20342;-79
2022/02/28 10:41:04;;;;;;;38.15;25.35;;;154.30;2252.80;;;;;;4938482;29;20023;-78
2022/02/28 10:43:35;;;;;;;39.50;24.02;;;154.30;2252.80;;;;;;4938273;29;20031;-79
2022/02/28 10:46:20;;;;;;;51.08;27.65;;;154.30;2252.80;;;;;;4938060;29;20035;-79
2022/02/28 10:48:58;;;;;;;53.20;28.65;;;154.40;2252.80;;;;;;4938042;29;20031;-78
2022/02/28 10:51:25;;;;;;;43.25;24.77;;;154.40;2252.80;;;;;;4937660;29;20461;-78
2022/02/28 10:54:25;;;;;;;39.42;22.08;;;154.50;2252.80;;;;;;4937937;29;20373;-80
2022/02/28 10:56:55;;;;;;;42.70;26.52;;;179.20;2252.80;;;;;;4938346;29;20098;-78
2022/02/28 10:59:24;;;;;;;31.92;20.08;;;179.30;2252.80;;;;;;4937610;29;20047;-79
2022/02/28 11:01:51;;;;;;;33.42;21.40;;;179.30;2252.80;;;;;;4938117;29;20074;-79
2022/02/28 11:04:34;;;;;;;17.08;11.48;;;179.40;2252.80;;;;;;4938124;29;20023;-77
2022/02/28 11:07:02;;;;;;;16.88;11.95;;;179.40;2252.80;;;;;;4937733;29;20107;-79
2022/02/28 11:09:43;;;;;;;27.42;17.02;;;179.30;2252.80;;;;;;4938083;29;20023;-80
2022/02/28 11:12:17;;;;;;;35.25;22.77;;;179.30;2252.80;;;;;;4955116;29;20031;-80
2022/02/28 11:14:47;;;;;;;25.75;18.40;;;179.40;2252.80;;;;;;4937834;29;20023;-79
2022/02/28 11:17:24;;;;;;;18.92;13.82;;;179.40;2252.80;;;;;;4937817;29;20441;-77
2022/02/28 11:19:51;;;;;;;22.80;16.27;;;179.40;2252.80;;;;;;4935075;29;20111;-78
2022/02/28 11:22:19;;;;;;;30.27;18.02;;;179.70;2252.80;;;;;;4936260;29;20035;-78
2022/02/28 11:24:46;;;;;;;26.58;17.65;;;179.40;2252.80;;;;;;4919224;29;20071;-78
2022/02/28 11:27:16;;;;;;;24.83;16.42;;;179.30;2252.80;;;;;;4918905;29;20114;-79
2022/02/28 11:29:43;;;;;;;25.55;17.73;;;179.60;2252.80;;;;;;4936232;29;20070;-79
2022/02/28 11:32:10;;;;;;;31.05;18.88;;;179.60;2252.80;;;;;;4936433;29;20099;-80
2022/02/28 11:34:36;;;;;;;26.75;16.13;;;179.70;2252.80;;;;;;4935850;29;20110;-79
2022/02/28 11:37:05;;;;;;;32.97;17.02;;;179.80;2252.80;;;;;;4918964;29;20115;-79
2022/02/28 11:39:32;;;;;;;25.75;18.15;;;179.90;2252.80;;;;;;4918913;29;20027;-80
2022/02/28 11:42:00;;;;;;;18.92;11.35;;;180.10;2252.80;;;;;;4918816;29;20119;-75
2022/02/28 11:44:26;;;;;;;14.30;8.88;;;204.90;2252.80;;;;;;4936495;29;20071;-77
2022/02/28 11:47:00;;;;;;;17.20;9.73;;;180.00;2252.80;;;;;;4919384;29;20032;-82
2022/02/28 11:49:27;;;;;;;14.70;7.68;;;180.00;2252.80;;;;;;4941981;29;20024;-78
2022/02/28 11:51:52;;;;;;;20.50;11.25;;;180.00;2252.80;;;;;;4920455;29;20044;-84
2022/02/28 11:54:18;;;;;;;14.65;8.75;;;180.00;2252.80;;;;;;4920244;29;20465;-83
2022/02/28 11:56:49;;;;;;;18.92;12.25;;;179.90;2252.80;;;;;;4919139;29;20019;-79
2022/02/28 11:59:19;;;;;;;18.42;10.23;;;180.00;2252.80;;;;;;4918613;29;20083;-84
2022/02/28 12:01:49;;;;;;;14.93;10.50;;;179.90;2252.80;;;;;;4918966;29;20016;-79
2022/02/28 12:04:18;;;;;;;16.02;10.38;;;179.90;2252.80;;;;;;4935511;29;20047;-81
2022/02/28 12:07:05;;;;;;;25.50;14.45;;;179.80;2252.80;;;;;;4921140;29;20122;-80
2022/02/28 12:09:37;;;;;;;37.10;19.02;;;179.80;2252.80;;;;;;4922590;29;20038;-79
2022/02/28 12:12:22;;;;;;;31.23;20.75;;;179.80;2252.80;;;;;;4922198;29;20060;-82
2022/02/28 12:14:57;;;;;;;35.13;20.77;;;179.70;2252.80;;;;;;4922351;29;20019;-79
2022/02/28 12:17:44;;;;;;;27.50;16.58;;;179.60;2252.80;;;;;;4921679;29;20058;-80
2022/02/28 12:20:23;;;;;;;37.22;22.55;;;179.50;2252.80;;;;;;4921739;29;20177;-78
2022/02/28 12:23:05;;;;;;;28.40;19.83;;;179.40;2252.80;;;;;;4922056;29;20024;-79
2022/02/28 12:25:44;;;;;;;25.27;17.08;;;179.30;2252.80;;;;;;4922125;29;20115;-79
2022/02/28 12:28:20;;;;;;;26.88;16.77;;;179.30;2252.80;;;;;;4921642;29;20062;-80
2022/02/28 12:31:00;;;;;;;19.38;12.35;;;179.20;2252.80;;;;;;4918173;29;20048;-80
2022/02/28 12:33:34;;;;;;;32.80;20.08;;;154.50;2252.80;;;;;;4918363;29;20039;-78
2022/02/28 12:36:14;;;;;;;22.70;14.30;;;154.50;2252.80;;;;;;4918565;29;20020;-81
2022/02/28 12:38:57;;;;;;;29.17;19.50;;;154.40;2252.80;;;;;;4918090;29;20039;-79
2022/02/28 12:41:24;;;;;;;25.55;17.90;;;154.50;2252.80;;;;;;4918424;29;20024;-82
2022/02/28 12:43:51;;;;;;;28.08;18.42;;;179.20;2252.80;;;;;;4918404;29;20442;-78
2022/02/28 12:46:20;;;;;;;33.22;23.50;;;179.20;2252.80;;;;;;4917881;29;20028;-79
2022/02/28 12:48:48;;;;;;;42.88;28.65;;;179.30;2252.80;;;;;;4918075;29;20079;-80
2022/02/28 12:51:24;;;;;;;66.20;42.08;;;179.30;2252.80;;;;;;4918123;29;20027;-79
2022/02/28 12:54:20;;;;;;;95.97;60.38;;;179.30;2252.80;;;;;;4916569;29;20072;-79
2022/02/28 12:56:47;;;;;;;130.95;87.93;;;179.40;2252.80;;;;;;4932654;29;20675;-80
2022/02/28 12:59:15;;;;;;;47.60;31.10;;;179.40;2252.80;;;;;;4917409;29;20042;-80
2022/02/28 13:01:41;;;;;;;34.00;23.38;;;179.40;2252.80;;;;;;4918047;29;20035;-80
2022/02/28 13:04:14;;;;;;;43.35;28.20;;;179.40;2252.80;;;;;;4917908;29;20530;-82
2022/02/28 13:06:43;;;;;;;;;;;179.40;2252.80;;;;;;4917027;29;20116;-80
2022/02/28 13:09:14;;;;;;;29.13;20.55;;;179.40;2252.80;;;;;;4917682;29;20345;-82
2022/02/28 13:11:49;;;;;;;27.50;18.95;;;179.40;2252.80;;;;;;4917891;29;20411;-82
2022/02/28 13:14:23;;;;;;;26.48;16.42;;;179.40;2252.80;;;;;;4917668;29;20043;-80
2022/02/28 13:17:00;;;;;;;46.17;27.58;;;179.40;2252.80;;;;;;4917789;29;20370;-80
2022/02/28 13:19:31;;;;;;;45.67;28.10;;;179.50;2252.80;;;;;;4914887;29;20550;-81
2022/02/28 13:22:01;;;;;;;35.53;29.27;;;179.60;2252.80;;;;;;4917581;29;20028;-81
2022/02/28 13:24:33;;;;;;;42.42;27.88;;;179.60;2252.80;;;;;;4917406;29;20024;-80
2022/02/28 13:27:12;;;;;;;68.70;40.60;;;179.60;2252.80;;;;;;4917549;29;20075;-81
2022/02/28 13:29:39;;;;;;;60.13;34.70;;;179.80;2252.80;;;;;;4917391;29;20110;-81
2022/02/28 13:32:17;;;;;;;34.25;23.42;;;179.90;2252.80;;;;;;4917673;29;20020;-81
2022/02/28 13:34:46;;;;;;;46.70;26.85;;;179.90;2252.80;;;;;;4917315;29;20035;-82
2022/02/28 13:37:18;;;;;;;66.43;37.45;;;179.90;2252.80;;;;;;4917726;29;20028;-79
2022/02/28 13:39:44;;;;;;;38.10;24.43;;;179.90;2252.80;;;;;;4917202;29;20463;-83
2022/02/28 13:42:48;;;;;;;32.10;20.75;;;179.80;2252.80;;;;;;4917366;29;20024;-83
2022/02/28 13:45:19;;;;;;;;;;;179.70;2252.80;;;;;;4917799;29;20027;-81
2022/02/28 13:47:45;;;;;;;61.65;31.83;;;179.70;2252.80;;;;;;4917194;29;20007;-80
2022/02/28 13:50:12;;;;;;;51.95;26.95;;;179.70;2252.80;;;;;;4916938;29;20114;-81
2022/02/28 13:52:39;;;;;;;56.90;35.13;;;179.60;2252.80;;;;;;4916957;29;20028;-79
2022/02/28 13:55:14;;;;;;;63.80;36.03;;;179.70;2252.80;;;;;;4917015;29;20031;-81
2022/02/28 13:57:50;;;;;;;29.80;19.52;;;179.70;2252.80;;;;;;4916043;29;20035;-78
2022/02/28 14:00:20;;;;;;;26.50;16.42;;;179.60;2252.80;;;;;;4916643;29;20075;-83
2022/02/28 14:02:53;;;;;;;33.75;19.10;;;179.60;2252.80;;;;;;4917002;29;20458;-82
2022/02/28 14:05:20;;;;;;;40.03;24.05;;;179.60;2252.80;;;;;;4916804;29;20031;-80
2022/02/28 14:08:01;;;;;;;36.63;22.20;;;179.60;2252.80;;;;;;4917510;29;20119;-82
2022/02/28 14:10:31;;;;;;;38.20;25.35;;;179.60;2252.80;;;;;;4916997;29;20028;-82
2022/02/28 14:12:57;;;;;;;35.40;23.38;;;179.60;2252.80;;;;;;4916511;29;20471;-82
2022/02/28 14:15:29;;;;;;;43.45;25.13;;;204.80;2252.80;;;;;;4917012;29;20115;-79
2022/02/28 14:17:58;;;;;;;38.53;23.38;;;179.30;2252.80;;;;;;4916913;29;20470;-82
2022/02/28 14:20:25;;;;;;;40.25;25.15;;;179.30;2252.80;;;;;;4916773;29;20120;-83
2022/02/28 14:23:07;;;;;;;36.00;24.35;;;179.30;2252.80;;;;;;4918153;29;20163;-80
2022/02/28 14:25:33;;;;;;;35.78;21.90;;;179.30;2252.80;;;;;;4916763;29;20481;-79
2022/02/28 14:28:00;;;;;;;38.88;21.63;;;179.20;2252.80;;;;;;4916635;29;20028;-81
2022/02/28 14:30:26;;;;;;;55.25;26.85;;;179.20;2252.80;;;;;;4916264;29;20087;-79
2022/02/28 14:33:10;;;;;;;49.58;27.83;;;179.20;2252.80;;;;;;4916538;29;20430;-80
2022/02/28 14:36:26;;;;;;;56.00;31.77;;;154.50;2252.80;;;;;;4916662;29;20075;-84
2022/02/28 14:38:52;;;;;;;55.30;35.30;;;179.20;2252.80;;;;;;4916201;29;20127;-83
2022/02/28 14:41:18;;;;;;;69.57;40.90;;;179.20;2252.80;;;;;;4916136;29;20068;-81
2022/02/28 14:43:44;;;;;;;71.82;41.45;;;179.30;2252.80;;;;;;4916226;29;20017;-82
2022/02/28 14:46:14;;;;;;;61.22;41.08;;;179.40;2252.80;;;;;;4916547;29;20095;-80
2022/02/28 14:48:43;;;;;;;46.08;31.35;;;179.40;2252.80;;;;;;4916002;29;20026;-82
2022/02/28 14:51:09;;;;;;;38.47;24.73;;;179.40;2252.80;;;;;;4916526;29;20032;-82
2022/02/28 14:54:12;;;;;;;39.50;21.10;;;179.70;2252.80;;;;;;4915356;29;20036;-82
2022/02/28 14:56:42;;;;;;;34.63;18.25;;;179.60;2252.80;;;;;;4887208;29;20123;-82
2022/02/28 15:02:29;;;;;;;31.58;19.95;;;179.40;2252.80;;;;;;4917212;29;20103;-82
2022/02/28 15:05:17;;;;;;;24.30;17.10;;;154.20;2252.80;;;;;;4916029;29;20020;-83
2022/02/28 15:08:30;;;;;;;29.05;19.95;;;179.50;2252.80;;;;;;4916782;29;20016;-83
2022/02/28 15:11:06;;;;;;;;;;;179.70;2252.80;;;;;;4841351;29;20029;-84
2022/02/28 15:13:41;;;;;;;58.67;39.78;;;179.60;2252.80;;;;;;4840429;29;20457;-83
2022/02/28 15:19:31;;;;;;;43.70;30.02;;;179.60;2252.80;;;;;;4840411;29;20033;-83
2022/02/28 15:21:57;;;;;;;47.13;32.08;;;179.70;2252.80;;;;;;4840359;29;20026;-79
2022/02/28 15:24:23;;;;;;;49.08;35.08;;;179.60;2252.80;;;;;;4847839;29;20026;-79
2022/02/28 15:26:49;;;;;;;53.85;40.15;;;179.50;2252.80;;;;;;4916095;29;20031;-80
2022/02/28 15:29:15;;;;;;;30.60;20.27;;;179.50;2252.80;;;;;;4915507;29;20467;-82
2022/02/28 15:31:40;;;;;;;25.05;19.50;;;179.40;2252.80;;;;;;4900402;29;20044;-81
2022/02/28 15:34:06;;;;;;;25.35;18.58;;;179.30;2252.80;;;;;;4900475;29;20115;-82
2022/02/28 15:36:32;;;;;;;21.40;15.35;;;179.20;2252.80;;;;;;4899858;29;20020;-82
2022/02/28 15:38:58;;;;;;;29.35;18.63;;;154.50;2252.80;;;;;;4900475;29;20032;-83
2022/02/28 15:41:24;;;;;;;27.75;15.65;;;179.20;2252.80;;;;;;4902378;29;20023;-84
2022/02/28 15:43:49;;;;;;;29.77;17.30;;;179.20;2252.80;;;;;;4903945;29;20025;-83
2022/02/28 15:46:15;;;;;;;30.35;19.13;;;179.20;2252.80;;;;;;4904054;29;20162;-82
2022/02/28 15:49:02;;;;;;;36.70;21.15;;;179.20;2252.80;;;;;;4903987;29;20035;-82
2022/02/28 15:51:31;;;;;;;45.35;31.42;;;179.20;2252.80;;;;;;4895035;29;20035;-80
2022/02/28 15:53:57;;;;;;;79.97;50.58;;;154.50;2252.80;;;;;;4913222;29;20028;-74
2022/02/28 15:56:24;;;;;;;97.13;61.28;;;154.50;2252.80;;;;;;4919081;29;20028;-74
2022/02/28 15:58:49;;;;;;;134.73;85.90;;;154.50;2252.80;;;;;;4918032;29;20032;-80
2022/02/28 16:01:15;;;;;;;114.72;76.15;;;179.20;2252.80;;;;;;4903504;29;20085;-79
2022/02/28 16:03:41;;;;;;;117.82;75.03;;;179.20;2252.80;;;;;;4920733;29;20024;-79
2022/02/28 16:06:07;;;;;;;77.25;47.50;;;179.20;2252.80;;;;;;4920426;29;20032;-78
2022/02/28 16:08:33;;;;;;;89.55;62.95;;;154.50;2252.80;;;;;;4920604;29;20024;-81
2022/02/28 16:10:59;;;;;;;65.32;45.42;;;154.30;2252.80;;;;;;4902788;29;20032;-79
2022/02/28 16:13:25;;;;;;;67.07;39.72;;;154.20;2252.80;;;;;;4920268;29;20043;-77
2022/02/28 16:15:51;;;;;;;57.25;36.67;;;153.90;2252.80;;;;;;4903324;29;20024;-78
2022/02/28 16:18:19;;;;;;;58.28;39.50;;;154.00;2252.80;;;;;;4903040;29;20084;-81
2022/02/28 16:20:46;;;;;;;63.45;42.08;;;154.00;2252.80;;;;;;4903230;29;20031;-80
2022/02/28 16:23:11;;;;;;;66.22;43.42;;;154.10;2252.80;;;;;;4903230;29;20431;-79
2022/02/28 16:25:37;;;;;;;69.28;47.90;;;154.10;2252.80;;;;;;4920006;29;20024;-80
2022/02/28 16:28:03;;;;;;;66.22;45.20;;;154.20;2252.80;;;;;;4903231;29;20024;-77
2022/02/28 16:30:29;;;;;;;75.03;48.45;;;154.30;2252.80;;;;;;4935294;29;20040;-81
2022/02/28 16:32:55;;;;;;;60.97;40.38;;;154.30;2252.80;;;;;;4921537;29;20343;-80
2022/02/28 16:35:21;;;;;;;68.45;44.92;;;154.30;2252.80;;;;;;4938585;29;20354;-76
2022/02/28 16:37:47;;;;;;;72.97;48.20;;;154.30;2252.80;;;;;;4938565;29;20059;-79
2022/02/28 16:40:15;;;;;;;82.78;53.13;;;154.10;2252.80;;;;;;4921523;29;20028;-78
2022/02/28 16:42:43;;;;;;;81.07;50.10;;;153.90;2252.80;;;;;;4921670;29;20024;-77
2022/02/28 16:45:11;;;;;;;61.47;42.40;;;153.70;2252.80;;;;;;4921314;29;20032;-79
2022/02/28 16:47:37;;;;;;;51.28;35.33;;;128.70;2252.80;;;;;;4921177;29;20363;-80
2022/02/28 16:50:04;;;;;;;24.77;18.17;;;128.70;2252.80;;;;;;4921586;29;20047;-78
2022/02/28 16:52:30;;;;;;;29.25;21.55;;;128.60;2252.80;;;;;;4921567;29;20470;-78
2022/02/28 16:54:56;;;;;;;29.92;24.25;;;153.70;2252.80;;;;;;4921310;29;20078;-80
2022/02/28 16:57:22;;;;;;;37.22;29.80;;;128.70;2252.80;;;;;;4921464;29;20098;-80
2022/02/28 16:59:48;;;;;;;40.10;27.10;;;128.80;2252.80;;;;;;4921064;29;20038;-78
2022/02/28 17:02:50;;;;;;;34.47;24.65;;;128.80;2252.80;;;;;;4921233;29;20023;-79
2022/02/28 17:05:17;;;;;;;30.95;22.05;;;128.50;2252.80;;;;;;4860987;29;20021;-80
2022/02/28 17:07:46;;;;;;;298.70;139.80;;;128.30;2252.80;;;;;;4921610;29;20032;-81
2022/02/28 17:10:17;;;;;;;59.85;34.03;;;128.30;2252.80;;;;;;4921310;29;20023;-79
2022/02/28 17:12:43;;;;;;;26.98;20.08;;;128.10;2252.80;;;;;;4921199;29;20028;-82
2022/02/28 17:15:09;;;;;;;27.25;21.15;;;128.10;2252.80;;;;;;4920951;29;20473;-83
2022/02/28 17:17:35;;;;;;;34.25;23.45;;;103.30;2227.20;;;;;;4921042;29;20053;-83
2022/02/28 17:20:02;;;;;;;46.15;30.63;;;128.00;2252.80;;;;;;4921044;29;20028;-83
2022/02/28 17:22:28;;;;;;;31.52;22.75;;;128.10;2252.80;;;;;;4920898;29;20030;-84
2022/02/28 17:24:54;;;;;;;46.78;29.77;;;128.00;2252.80;;;;;;4921131;29;20028;-81
2022/02/28 17:27:20;;;;;;;50.47;36.67;;;128.10;2252.80;;;;;;4937774;29;20030;-80
2022/02/28 17:29:46;;;;;;;56.78;37.58;;;128.10;2252.80;;;;;;4920174;29;20130;-78
2022/02/28 17:32:13;;;;;;;50.10;35.10;;;128.10;2252.80;;;;;;4920592;29;20022;-78
2022/02/28 17:34:39;;;;;;;61.45;42.33;;;128.10;2252.80;;;;;;4937232;29;20129;-78
2022/02/28 17:37:10;;;;;;;54.30;34.72;;;128.30;2252.80;;;;;;4920379;29;20065;-80
2022/02/28 17:39:38;;;;;;;44.33;29.67;;;128.40;2252.80;;;;;;4920530;29;20035;-80
2022/02/28 17:42:05;;;;;;;64.40;40.55;;;128.40;2252.80;;;;;;4920165;29;20020;-80
2022/02/28 17:44:30;;;;;;;49.97;32.92;;;128.30;2252.80;;;;;;4920400;29;20066;-80
2022/02/28 17:46:57;;;;;;;66.03;38.85;;;128.20;2252.80;;;;;;4937590;29;20477;-79
2022/02/28 17:49:22;;;;;;;93.53;56.90;;;128.40;2252.80;;;;;;4920106;29;20026;-77
2022/02/28 17:51:49;;;;;;;91.05;56.05;;;128.40;2252.80;;;;;;4920449;29;20110;-79
2022/02/28 17:54:14;;;;;;;91.40;60.58;;;128.40;2252.80;;;;;;4920541;29;20039;-79
2022/02/28 17:56:42;;;;;;;92.63;61.17;;;128.40;2252.80;;;;;;4920034;29;20023;-79
2022/02/28 17:59:08;;;;;;;84.05;57.20;;;128.30;2252.80;;;;;;4936991;29;20027;-80
2022/02/28 18:01:35;;;;;;;158.57;102.80;;;128.10;2252.80;;;;;;4920341;29;20529;-80
2022/02/28 18:04:01;;;;;;;207.35;125.32;;;128.00;2252.80;;;;;;4919192;29;20024;-82
2022/02/28 18:06:27;;;;;;;359.05;189.50;;;103.30;2227.20;;;;;;4937304;29;20110;-81
2022/02/28 18:08:53;;;;;;;354.10;172.15;;;128.10;2252.80;;;;;;4920193;29;20507;-80
2022/02/28 18:11:19;;;;;;;294.30;140.60;;;128.10;2252.80;;;;;;4919766;29;20374;-80
2022/02/28 18:13:45;;;;;;;429.17;196.63;;;103.30;2227.20;;;;;;4937054;29;20020;-82
2022/02/28 18:16:12;;;;;;;170.27;100.75;;;128.00;2252.80;;;;;;4920106;29;20477;-84
2022/02/28 18:18:38;;;;;;;113.97;78.57;;;128.00;2252.80;;;;;;4937013;29;20397;-81
2022/02/28 18:21:04;;;;;;;158.45;106.57;;;103.30;2227.20;;;;;;4920019;29;20023;-80
2022/02/28 18:23:30;;;;;;;167.93;121.20;;;103.20;2227.20;;;;;;4919900;29;20027;-81
2022/02/28 18:25:57;;;;;;;139.88;99.40;;;103.10;2227.20;;;;;;4919762;29;20462;-82
2022/02/28 18:28:22;;;;;;;178.30;120.38;;;103.00;2227.20;;;;;;4920026;29;20057;-81
2022/02/28 18:30:48;;;;;;;154.38;101.95;;;103.00;2227.20;;;;;;4919363;29;20039;-83
2022/02/28 18:33:20;;;;;;;162.50;116.55;;;103.10;2227.20;;;;;;4919875;29;20034;-81
2022/02/28 18:35:46;;;;;;;79.38;58.22;;;103.30;2227.20;;;;;;4919722;29;20346;-82
2022/02/28 18:38:25;;;;;;;65.28;46.38;;;128.10;2252.80;;;;;;4919016;29;20122;-83
2022/02/28 18:47:42;;;;;;;78.93;43.15;;;103.10;2227.20;;;;;;4877137;29;20119;-82
2022/02/28 18:50:09;;;;;;;89.80;47.88;;;103.00;2227.20;;;;;;4909943;29;20521;-82
2022/02/28 18:52:35;;;;;;;322.30;141.65;;;102.80;2227.20;;;;;;4919397;29;20051;-85
2022/02/28 18:55:01;;;;;;;161.02;80.38;;;102.70;2227.20;;;;;;4919586;29;20118;-82
2022/02/28 18:57:26;;;;;;;162.27;96.43;;;102.50;2227.20;;;;;;4919680;29;20066;-83
2022/02/28 18:59:52;;;;;;;141.88;87.30;;;102.40;2227.20;;;;;;4919179;29;20443;-81
2022/02/28 19:02:18;;;;;;;185.68;110.60;;;102.40;2227.20;;;;;;4919359;29;20378;-81
2022/02/28 19:04:44;;;;;;;135.20;86.75;;;77.70;2227.20;;;;;;4919129;29;20477;-83
2022/02/28 19:07:10;;;;;;;99.93;66.43;;;77.60;2227.20;;;;;;4919387;29;20031;-82
2022/02/28 19:09:36;;;;;;;191.98;95.45;;;77.70;2227.20;;;;;;4919387;29;20359;-80
2022/02/28 19:12:03;;;;;;;167.45;73.90;;;102.40;2227.20;;;;;;4919405;29;20028;-81
2022/02/28 19:14:29;;;;;;;209.70;83.78;;;102.50;2227.20;;;;;;4919318;29;20032;-80
2022/02/28 19:16:55;;;;;;;274.90;109.30;;;102.50;2227.20;;;;;;4922897;29;20042;-78
2022/02/28 19:19:22;;;;;;;178.85;85.03;;;102.50;2227.20;;;;;;4923131;29;20118;-80
2022/02/28 19:21:49;;;;;;;194.13;91.47;;;102.50;2227.20;;;;;;4922853;29;20129;-80
2022/02/28 19:24:15;;;;;;;171.38;86.85;;;102.50;2227.20;;;;;;4922365;29;20028;-83
2022/02/28 19:26:41;;;;;;;162.60;73.82;;;77.70;2227.20;;;;;;4922738;29;20024;-81
2022/02/28 19:29:07;;;;;;;190.23;84.18;;;102.60;2227.20;;;;;;4922788;29;20047;-80
2022/02/28 19:31:34;;;;;;;124.72;72.32;;;102.60;2227.20;;;;;;4922860;29;20027;-82
2022/02/28 19:34:00;;;;;;;90.53;39.85;;;102.50;2227.20;;;;;;4922572;29;20458;-79
2022/02/28 19:36:26;;;;;;;93.15;50.38;;;102.60;2227.20;;;;;;4922987;29;20458;-79
2022/02/28 19:38:55;;;;;;;183.07;75.07;;;102.60;2227.20;;;;;;4922867;29;20098;-85
2022/02/28 19:41:25;;;;;;;224.55;91.22;;;102.60;2227.20;;;;;;4922565;29;20087;-84
2022/02/28 19:44:03;;;;;;;180.57;82.00;;;102.60;2227.20;;;;;;4939969;29;20075;-83
2022/02/28 19:46:29;;;;;;;221.50;110.55;;;102.60;2227.20;;;;;;4939779;29;20023;-83
2022/02/28 19:48:55;;;;;;;222.82;121.00;;;102.60;2227.20;;;;;;4922402;29;20110;-80
2022/02/28 19:51:20;;;;;;;176.10;116.65;;;102.60;2227.20;;;;;;4922289;29;20026;-80
2022/02/28 19:53:47;;;;;;;181.52;116.05;;;102.50;2227.20;;;;;;4922543;29;20024;-79
2022/02/28 19:56:13;;;;;;;107.68;65.28;;;102.50;2227.20;;;;;;4922208;29;20127;-79
2022/02/28 19:58:39;;;;;;;79.85;44.08;;;102.60;2227.20;;;;;;4922678;29;20095;-81
2022/02/28 20:01:05;;;;;;;54.47;33.75;;;102.60;2227.20;;;;;;4922495;29;20094;-83
2022/02/28 20:04:14;;;;;;;89.70;46.65;;;102.70;2227.20;;;;;;4939418;29;20513;-85
2022/02/28 20:07:02;;;;;;;146.75;77.80;;;102.60;2227.20;;;;;;4921808;29;20031;-83
2022/02/28 20:09:28;;;;;;;53.58;32.85;;;102.70;2227.20;;;;;;4921794;29;20035;-83
2022/02/28 20:11:54;;;;;;;97.95;60.42;;;102.70;2227.20;;;;;;4939182;29;20028;-83
2022/02/28 20:14:39;;;;;;;205.73;126.25;;;102.70;2227.20;;;;;;4922173;29;20027;-83
2022/02/28 20:17:07;;;;;;;225.48;139.07;;;102.60;2227.20;;;;;;4921806;29;20028;-83
2022/02/28 20:19:33;;;;;;;168.68;106.90;;;102.60;2227.20;;;;;;4921505;29;20044;-82
2022/02/28 20:24:45;;;;;;;164.35;107.13;;;102.70;2227.20;;;;;;4938878;29;20045;-84
2022/02/28 20:27:11;;;;;;;188.55;123.38;;;102.70;2227.20;;;;;;4921654;29;20085;-84
2022/02/28 20:29:39;;;;;;;220.10;134.07;;;102.60;2227.20;;;;;;4938463;29;20059;-83
2022/02/28 20:32:05;;;;;;;225.70;132.10;;;102.60;2227.20;;;;;;4921917;29;20035;-83
2022/02/28 20:34:34;;;;;;;255.55;152.57;;;102.50;2227.20;;;;;;4921921;29;20028;-83
2022/02/28 20:37:03;;;;;;;160.32;96.57;;;102.50;2227.20;;;;;;4921602;29;20024;-82
2022/02/28 20:39:35;;;;;;;190.05;112.53;;;102.60;2227.20;;;;;;4921679;29;20023;-84
2022/02/28 20:42:03;;;;;;;142.00;86.97;;;102.50;2227.20;;;;;;4921863;29;20086;-83
2022/02/28 20:44:35;;;;;;;160.85;93.18;;;102.60;2227.20;;;;;;4921673;29;20258;-83
2022/02/28 20:50:34;;;;;;;243.27;124.00;;;102.60;2227.20;;;;;;4879947;29;20273;-84
2022/02/28 20:53:05;;;;;;;227.05;125.00;;;102.50;2227.20;;;;;;4921489;29;20024;-83
2022/02/28 20:55:31;;;;;;;129.57;74.85;;;102.60;2227.20;;;;;;4918893;29;20036;-83
2022/02/28 20:57:57;;;;;;;302.58;158.48;;;102.50;2227.20;;;;;;4938147;29;20023;-84
2022/02/28 21:00:26;;;;;;;178.98;107.65;;;102.50;2227.20;;;;;;4921442;29;20023;-81
2022/02/28 21:05:43;;;;;;;420.20;223.77;;;102.50;2227.20;;;;;;4909993;29;20385;-80
2022/02/28 21:08:09;;;;;;;364.25;196.80;;;102.40;2227.20;;;;;;4921456;29;20028;-83
2022/02/28 21:10:38;;;;;;;241.00;138.73;;;102.40;2227.20;;;;;;4920802;29;20447;-83
2022/02/28 21:13:04;;;;;;;252.60;146.05;;;102.40;2227.20;;;;;;4930505;29;20028;-77
2022/02/28 21:15:30;;;;;;;164.35;94.10;;;102.40;2227.20;;;;;;4942187;29;20071;-75
2022/02/28 21:17:56;;;;;;;164.75;95.80;;;102.40;2227.20;;;;;;4922729;29;20103;-81
2022/02/28 21:20:22;;;;;;;186.80;113.63;;;102.40;2227.20;;;;;;4921120;29;20446;-80